Dewitt, Arkansas
Current Conditions -  °F | °C
As of 4:55 PM on Monday 24 Nov 2014 (Local Time) from KSGT Reporting Station
Clear Clear  
Wind Chill: 54°   Ceiling: Unl
Heat Index: 54°   Visibility: 10mi
Dew Point: 30°   Wind: 9mph
Humidity: 41%   Direction: 240°WSW
Pressure: 29.98"   Gusts: NA
Location:  34.1937°N, 91.3321°W
Report Text: KSGT 242255Z AUTO 24008KT 10SM CLR 12/M01 A2998 RMK AO1
Loading
Personal Weather Stations






























Interactive Weather Map New forecast layout! Learn more

10-Day Weather Forecast

Advertisements
Track Severe Weather on mobile